createdAt,value
2019-03-19T00:01:45.032Z,100782.00
2019-03-19T00:04:48.364Z,100789.87
2019-03-19T00:07:51.707Z,100790.17
2019-03-19T00:10:55.039Z,100792.82
2019-03-19T00:13:58.333Z,100799.58
2019-03-19T00:17:01.689Z,100803.89
2019-03-19T00:20:08.365Z,100803.89
2019-03-19T00:23:11.708Z,100805.96
2019-03-19T00:26:15.029Z,100807.22
2019-03-19T00:29:18.397Z,100810.77
2019-03-19T00:32:21.738Z,100817.26
2019-03-19T00:35:25.074Z,100816.31
2019-03-19T00:38:28.387Z,100821.48
2019-03-19T00:41:31.770Z,100825.64
2019-03-19T00:44:35.073Z,100824.99
2019-03-19T00:47:38.417Z,100822.98
2019-03-19T00:50:41.753Z,100837.92
2019-03-19T00:53:45.085Z,100840.83
2019-03-19T00:56:48.411Z,100843.81
2019-03-19T00:59:51.721Z,100835.66
2019-03-19T01:02:55.047Z,100844.18
2019-03-19T01:05:58.370Z,100840.31
2019-03-19T01:09:01.668Z,100834.19
2019-03-19T01:12:05.003Z,100836.66
2019-03-19T01:15:13.036Z,100840.78
2019-03-19T01:18:16.357Z,100840.37
2019-03-19T01:21:19.659Z,100846.05
2019-03-19T01:24:22.970Z,100845.14
2019-03-19T01:27:26.284Z,100838.41
2019-03-19T01:30:29.613Z,100846.08
2019-03-19T01:33:32.922Z,100848.70
2019-03-19T01:36:36.250Z,100847.30
2019-03-19T01:39:39.542Z,100840.11
2019-03-19T01:42:42.868Z,100849.34
2019-03-19T01:45:46.156Z,100847.36
2019-03-19T01:48:49.481Z,100852.82
2019-03-19T01:51:52.792Z,100847.22
2019-03-19T01:54:56.083Z,100854.17
2019-03-19T01:57:59.419Z,100855.62
2019-03-19T02:01:02.727Z,100859.13
2019-03-19T02:04:06.030Z,100862.33
2019-03-19T02:07:09.340Z,100874.58
2019-03-19T02:10:15.619Z,100877.45
2019-03-19T02:13:18.956Z,100872.97
2019-03-19T02:16:22.290Z,100876.03
2019-03-19T02:19:25.692Z,100878.00
2019-03-19T02:22:29.005Z,100884.58
2019-03-19T02:25:32.297Z,100875.23
2019-03-19T02:28:35.694Z,100887.49
2019-03-19T02:31:39.042Z,100887.72
2019-03-19T02:34:42.324Z,100882.75
2019-03-19T02:37:45.639Z,100890.64
2019-03-19T02:40:48.940Z,100892.42
2019-03-19T02:43:52.283Z,100898.55
2019-03-19T02:46:55.571Z,100902.05
2019-03-19T02:49:58.897Z,100907.30
2019-03-19T02:53:02.216Z,100907.48
2019-03-19T02:56:05.599Z,100906.45
2019-03-19T02:59:08.931Z,100910.50
2019-03-19T03:02:12.236Z,100916.67
2019-03-19T03:05:19.578Z,100916.11
2019-03-19T03:08:22.916Z,100912.45
2019-03-19T03:11:26.218Z,100917.12
2019-03-19T03:14:29.545Z,100910.53
2019-03-19T03:17:32.872Z,100914.14
2019-03-19T03:20:36.175Z,100917.48
2019-03-19T03:23:39.505Z,100920.21
2019-03-19T03:26:48.093Z,100931.58
2019-03-19T03:29:47.954Z,100928.28
2019-03-19T03:32:51.325Z,100927.25
2019-03-19T03:35:54.653Z,100935.45
2019-03-19T03:38:57.977Z,100940.77
2019-03-19T03:42:01.303Z,100943.59
2019-03-19T03:45:07.679Z,100956.33
2019-03-19T03:48:10.979Z,100955.31
2019-03-19T03:51:14.295Z,100964.73
2019-03-19T03:54:17.613Z,100974.09
2019-03-19T03:57:20.925Z,100967.67
2019-03-19T04:00:24.515Z,100972.94
2019-03-19T04:03:27.831Z,100978.55
2019-03-19T04:06:31.150Z,100984.14
2019-03-19T04:09:34.459Z,100975.69
2019-03-19T04:12:37.754Z,100982.92
2019-03-19T04:15:41.138Z,100989.47
2019-03-19T04:18:44.443Z,100990.59
2019-03-19T04:21:47.761Z,100994.12
2019-03-19T04:24:51.078Z,100999.43
2019-03-19T04:27:54.391Z,101003.05
2019-03-19T04:30:57.703Z,100996.31
2019-03-19T04:34:01.029Z,100997.91
2019-03-19T04:37:04.343Z,100999.12
2019-03-19T04:40:10.876Z,100997.64
2019-03-19T04:43:14.268Z,101007.62
2019-03-19T04:46:17.591Z,101008.86
2019-03-19T04:49:20.885Z,101006.09
2019-03-19T04:52:24.218Z,101009.22
2019-03-19T04:55:27.513Z,101020.25
2019-03-19T04:58:30.807Z,101025.44
2019-03-19T05:01:34.141Z,101032.00
2019-03-19T05:04:37.451Z,101035.42
2019-03-19T05:07:40.777Z,101039.25
2019-03-19T05:10:44.088Z,101036.92
2019-03-19T05:13:47.386Z,101040.77
2019-03-19T05:16:50.701Z,101040.43
2019-03-19T05:19:54.019Z,101043.87
2019-03-19T05:22:57.346Z,101046.07
2019-03-19T05:26:00.681Z,101044.80
2019-03-19T05:29:03.970Z,101054.28
2019-03-19T05:32:07.292Z,101055.45
2019-03-19T05:35:10.596Z,101054.25
2019-03-19T05:38:13.916Z,101056.12
2019-03-19T05:41:17.255Z,101059.95
2019-03-19T05:44:20.552Z,101062.78
2019-03-19T05:47:23.947Z,101061.73
2019-03-19T05:50:27.265Z,101069.83
2019-03-19T05:53:30.583Z,101070.97
2019-03-19T05:56:33.894Z,101066.05
2019-03-19T05:59:37.191Z,101072.34
2019-03-19T06:02:40.523Z,101072.40
2019-03-19T06:05:44.028Z,101081.09
2019-03-19T06:08:47.248Z,101088.30
2019-03-19T06:11:52.425Z,101093.58
2019-03-19T06:14:55.730Z,101096.84
2019-03-19T06:17:59.101Z,101095.65
2019-03-19T06:21:02.437Z,101106.36
2019-03-19T06:24:05.759Z,101108.41
2019-03-19T06:27:09.069Z,101111.23
2019-03-19T06:30:17.391Z,101122.95
2019-03-19T06:33:20.706Z,101125.10
2019-03-19T06:36:24.023Z,101125.24
2019-03-19T06:39:27.403Z,101126.78
2019-03-19T06:42:30.707Z,101127.52
2019-03-19T06:45:34.025Z,101130.83
2019-03-19T06:48:37.325Z,101138.70
2019-03-19T06:51:40.653Z,101141.57
2019-03-19T06:54:43.961Z,101137.83
2019-03-19T06:57:47.285Z,101137.58
2019-03-19T07:00:50.592Z,101137.86
2019-03-19T07:03:55.552Z,101144.53
2019-03-19T07:06:58.893Z,101146.66
2019-03-19T07:10:02.248Z,101148.15
2019-03-19T07:13:05.542Z,101151.45
2019-03-19T07:16:08.843Z,101154.83
2019-03-19T07:19:12.164Z,101164.11
2019-03-19T07:22:15.482Z,101160.45
2019-03-19T07:25:18.795Z,101169.66
2019-03-19T07:28:22.613Z,101170.34
2019-03-19T07:31:30.871Z,101175.09
2019-03-19T07:34:30.945Z,101169.08
2019-03-19T07:37:34.242Z,101163.94
2019-03-19T07:40:37.576Z,101168.39
2019-03-19T07:43:40.882Z,101160.70
2019-03-19T07:46:45.967Z,101164.69
2019-03-19T07:49:49.420Z,101166.31
2019-03-19T07:52:52.794Z,101167.38
2019-03-19T07:55:56.163Z,101159.22
2019-03-19T07:58:59.470Z,101172.09
2019-03-19T08:02:02.861Z,101176.20
2019-03-19T08:05:08.809Z,101172.88
2019-03-19T08:08:12.125Z,101175.35
2019-03-19T08:11:16.760Z,101181.48
2019-03-19T08:14:20.499Z,101180.74
2019-03-19T08:17:23.813Z,101176.53
2019-03-19T08:20:27.132Z,101185.19
2019-03-19T08:23:30.481Z,101192.86
2019-03-19T08:26:33.775Z,101189.17
2019-03-19T08:29:37.074Z,101204.53
2019-03-19T08:32:40.414Z,101198.80
2019-03-19T08:35:43.731Z,101198.72
2019-03-19T08:38:47.110Z,101208.27
2019-03-19T08:41:50.448Z,101209.20
2019-03-19T08:44:53.954Z,101205.81
2019-03-19T08:47:57.570Z,101209.48
2019-03-19T08:51:01.398Z,101207.98
2019-03-19T08:54:04.706Z,101212.08
2019-03-19T08:57:08.039Z,101211.61
2019-03-19T09:00:19.260Z,101217.63
2019-03-19T09:03:22.578Z,101222.09
2019-03-19T09:06:25.882Z,101238.05
2019-03-19T09:09:32.020Z,101244.45
2019-03-19T09:12:35.550Z,101263.44
2019-03-19T09:15:38.839Z,101277.27
2019-03-19T09:18:42.146Z,101283.84
2019-03-19T09:21:45.464Z,101288.98
2019-03-19T09:24:48.798Z,101295.50
2019-03-19T09:27:52.109Z,101301.89
2019-03-19T09:30:55.406Z,101307.04
2019-03-19T09:33:58.732Z,101318.24
2019-03-19T09:37:02.055Z,101314.85
2019-03-19T09:40:08.850Z,101312.91
2019-03-19T09:43:12.168Z,101306.30
2019-03-19T09:46:15.469Z,101311.41
2019-03-19T09:49:21.032Z,101310.16
2019-03-19T09:52:23.831Z,101308.17
2019-03-19T09:55:27.134Z,101309.36
2019-03-19T09:58:30.472Z,101313.80
2019-03-19T10:01:33.753Z,101302.22
2019-03-19T10:04:37.064Z,101301.10
2019-03-19T10:07:40.377Z,101295.38
2019-03-19T10:10:43.724Z,101295.52
2019-03-19T10:13:47.097Z,101291.46
2019-03-19T10:16:50.399Z,101295.13
2019-03-19T10:19:53.761Z,101299.34
2019-03-19T10:22:57.101Z,101293.31
2019-03-19T10:26:00.415Z,101303.56
2019-03-19T10:29:03.749Z,101290.36
2019-03-19T10:32:07.046Z,101287.85
2019-03-19T10:35:10.377Z,101294.52
2019-03-19T10:38:13.681Z,101296.30
2019-03-19T10:41:17.001Z,101289.80
2019-03-19T10:44:20.324Z,101287.47
2019-03-19T10:47:23.642Z,101277.56
2019-03-19T10:50:27.983Z,101294.26
2019-03-19T10:53:31.334Z,101277.11
2019-03-19T10:56:34.675Z,101273.70
2019-03-19T10:59:48.543Z,101263.55
2019-03-19T11:02:43.033Z,101263.66
2019-03-19T11:05:46.349Z,101262.33
2019-03-19T11:08:49.652Z,101266.75
2019-03-19T11:11:52.972Z,101277.42
2019-03-19T11:14:56.268Z,101285.38
2019-03-19T11:17:59.564Z,101282.27
2019-03-19T11:21:02.881Z,101282.82
2019-03-19T11:24:06.176Z,101285.63
2019-03-19T11:27:09.496Z,101289.56
2019-03-19T11:30:24.002Z,101296.53
2019-03-19T11:33:27.447Z,101269.97
2019-03-19T11:36:30.820Z,101302.36
2019-03-19T11:39:34.122Z,101308.77
2019-03-19T11:42:37.431Z,101318.41
2019-03-19T11:45:40.811Z,101334.27
2019-03-19T11:48:44.348Z,101352.92
2019-03-19T11:51:47.680Z,101348.50
2019-03-19T11:54:51.058Z,101359.89
2019-03-19T11:57:54.381Z,101352.52
2019-03-19T12:00:59.329Z,101343.70
2019-03-19T12:04:02.636Z,101343.19
2019-03-19T12:07:05.941Z,101336.99
2019-03-19T12:10:09.272Z,101337.95
2019-03-19T12:13:12.590Z,101341.20
2019-03-19T12:16:17.887Z,101344.41
2019-03-19T12:19:21.170Z,101348.67
2019-03-19T12:22:24.486Z,101347.70
2019-03-19T12:25:27.811Z,101354.55
2019-03-19T12:28:39.216Z,101361.38
2019-03-19T12:31:36.277Z,101361.07
2019-03-19T12:34:39.596Z,101359.23
2019-03-19T12:37:42.930Z,101347.60
2019-03-19T12:40:46.235Z,101347.55
2019-03-19T12:43:49.533Z,101344.70
2019-03-19T12:46:52.871Z,101342.82
2019-03-19T12:49:56.171Z,101339.98
2019-03-19T12:53:02.397Z,101338.98
2019-03-19T12:56:05.686Z,101340.48
2019-03-19T12:59:19.568Z,101335.64
2019-03-19T13:02:14.042Z,101335.13
2019-03-19T13:05:17.338Z,101350.30
2019-03-19T13:08:20.695Z,101355.37
2019-03-19T13:11:23.987Z,101356.89
2019-03-19T13:14:27.306Z,101347.61
2019-03-19T13:17:30.605Z,101352.44
2019-03-19T13:20:33.953Z,101343.11
2019-03-19T13:23:37.391Z,101339.61
2019-03-19T13:26:40.699Z,101334.65
2019-03-19T13:29:44.004Z,101333.70
2019-03-19T13:32:47.304Z,101324.64
2019-03-19T13:35:50.618Z,101332.24
2019-03-19T13:38:53.944Z,101332.94
2019-03-19T13:41:57.223Z,101335.62
2019-03-19T13:45:00.564Z,101333.01
2019-03-19T13:48:03.869Z,101332.89
2019-03-19T13:51:07.187Z,101339.46
2019-03-19T13:54:10.481Z,101339.98
2019-03-19T13:57:13.776Z,101336.29
2019-03-19T14:00:17.744Z,101344.92
2019-03-19T14:03:21.065Z,101338.66
2019-03-19T14:06:26.023Z,101332.95
2019-03-19T14:09:29.316Z,101333.72
2019-03-19T14:12:32.615Z,101337.97
2019-03-19T14:15:35.921Z,101340.27
2019-03-19T14:18:39.332Z,101337.36
2019-03-19T14:21:42.655Z,101336.00
2019-03-19T14:24:45.999Z,101344.67
2019-03-19T14:27:49.299Z,101341.05
2019-03-19T14:30:52.618Z,101347.58
2019-03-19T14:33:55.907Z,101344.67
2019-03-19T14:36:59.226Z,101346.32
2019-03-19T14:40:02.558Z,101349.39
2019-03-19T14:43:05.850Z,101350.95
2019-03-19T14:46:09.189Z,101354.05
2019-03-19T14:49:12.487Z,101358.58
2019-03-19T14:52:15.826Z,101356.41
2019-03-19T14:55:19.216Z,101356.70
2019-03-19T14:58:22.471Z,101366.18
2019-03-19T15:01:25.796Z,101364.63
2019-03-19T15:04:29.069Z,101355.51
2019-03-19T15:07:32.391Z,101356.47
2019-03-19T15:10:35.713Z,101367.01
2019-03-19T15:13:39.032Z,101366.23
2019-03-19T15:16:42.342Z,101374.75
2019-03-19T15:19:45.634Z,101374.80
2019-03-19T15:22:48.956Z,101373.16
2019-03-19T15:25:52.332Z,101375.92
2019-03-19T15:28:55.628Z,101369.14
2019-03-19T15:31:59.156Z,101374.22
2019-03-19T15:35:02.453Z,101382.72
2019-03-19T15:38:05.872Z,101385.39
2019-03-19T15:41:09.173Z,101375.61
2019-03-19T15:44:12.481Z,101384.86
2019-03-19T15:47:15.814Z,101371.30
2019-03-19T15:50:19.125Z,101380.64
2019-03-19T15:53:22.461Z,101379.91
2019-03-19T15:56:25.767Z,101389.09
2019-03-19T15:59:29.103Z,101388.75
2019-03-19T16:02:32.420Z,101386.20
2019-03-19T16:05:35.717Z,101395.91
2019-03-19T16:08:39.049Z,101396.69
2019-03-19T16:11:42.351Z,101397.69
2019-03-19T16:14:45.630Z,101406.72
2019-03-19T16:17:48.946Z,101406.34
2019-03-19T16:20:52.225Z,101416.58
2019-03-19T16:23:55.539Z,101407.70
2019-03-19T16:26:58.879Z,101415.38
2019-03-19T16:30:02.184Z,101423.89
2019-03-19T16:33:05.485Z,101427.50
2019-03-19T16:36:08.836Z,101427.86
2019-03-19T16:39:12.123Z,101433.23
2019-03-19T16:42:15.466Z,101434.13
2019-03-19T16:45:18.872Z,101435.17
2019-03-19T16:48:22.161Z,101433.15
2019-03-19T16:51:25.463Z,101433.94
2019-03-19T16:54:28.765Z,101430.94
2019-03-19T16:57:32.070Z,101437.11
2019-03-19T17:00:35.375Z,101439.09
2019-03-19T17:03:39.239Z,101444.28
2019-03-19T17:06:42.547Z,101444.04
2019-03-19T17:09:45.862Z,101449.61
2019-03-19T17:12:49.168Z,101451.11
2019-03-19T17:15:52.700Z,101459.55
2019-03-19T17:18:56.058Z,101461.70
2019-03-19T17:21:59.364Z,101469.08
2019-03-19T17:25:02.697Z,101475.16
2019-03-19T17:28:06.005Z,101472.30
2019-03-19T17:31:09.339Z,101481.89
2019-03-19T17:34:12.659Z,101487.02
2019-03-19T17:37:15.975Z,101488.53
2019-03-19T17:40:19.299Z,101486.32
2019-03-19T17:43:22.596Z,101492.80
2019-03-19T17:46:25.921Z,101492.03
2019-03-19T17:49:29.235Z,101492.33
2019-03-19T17:52:32.615Z,101498.20
2019-03-19T17:55:35.946Z,101504.06
2019-03-19T17:58:39.259Z,101504.02
2019-03-19T18:01:42.741Z,101508.23
2019-03-19T18:04:46.037Z,101517.13
2019-03-19T18:07:49.417Z,101517.20
2019-03-19T18:10:52.721Z,101517.96
2019-03-19T18:13:56.033Z,101519.00
2019-03-19T18:16:59.339Z,101524.56
2019-03-19T18:20:03.125Z,101528.30
2019-03-19T18:23:06.444Z,101523.38
2019-03-19T18:26:09.780Z,101528.36
2019-03-19T18:29:13.316Z,101537.83
2019-03-19T18:32:16.645Z,101543.27
2019-03-19T18:35:20.006Z,101549.09
2019-03-19T18:38:23.341Z,101551.99
2019-03-19T18:41:26.702Z,101550.64
2019-03-19T18:44:30.037Z,101551.81
2019-03-19T18:47:33.383Z,101554.38
2019-03-19T18:50:36.715Z,101558.36
2019-03-19T18:53:40.091Z,101562.80
2019-03-19T18:56:43.471Z,101557.29
2019-03-19T18:59:46.828Z,101567.92
2019-03-19T19:02:54.327Z,101564.34
2019-03-19T19:06:01.523Z,101563.13
2019-03-19T19:09:07.414Z,101573.27
2019-03-19T19:12:10.710Z,101569.34
2019-03-19T19:15:22.146Z,101577.81
2019-03-19T19:18:25.442Z,101581.51
2019-03-19T19:21:28.867Z,101588.09
2019-03-19T19:24:32.140Z,101582.52
2019-03-19T19:27:35.493Z,101590.99
2019-03-19T19:30:38.800Z,101595.75
2019-03-19T19:33:42.140Z,101591.08
2019-03-19T19:36:45.509Z,101592.69
2019-03-19T19:39:48.831Z,101597.97
2019-03-19T19:42:52.155Z,101606.52
2019-03-19T19:45:55.505Z,101609.34
2019-03-19T19:48:58.884Z,101611.59
2019-03-19T19:52:02.143Z,101621.42
2019-03-19T19:55:07.341Z,101616.70
2019-03-19T19:58:10.933Z,101623.58
2019-03-19T20:01:14.256Z,101622.23
2019-03-19T20:04:17.673Z,101628.81
2019-03-19T20:07:21.023Z,101627.88
2019-03-19T20:10:26.740Z,101631.33
2019-03-19T20:13:30.387Z,101634.61
2019-03-19T20:16:33.685Z,101630.01
2019-03-19T20:19:37.010Z,101630.22
2019-03-19T20:22:40.519Z,101632.09
2019-03-19T20:25:43.869Z,101641.19
2019-03-19T20:28:47.215Z,101640.19
2019-03-19T20:31:50.639Z,101648.34
2019-03-19T20:34:53.969Z,101647.41
2019-03-19T20:37:57.285Z,101655.34
2019-03-19T20:41:00.713Z,101658.39
2019-03-19T20:44:04.045Z,101661.42
2019-03-19T20:47:07.374Z,101664.81
2019-03-19T20:50:13.689Z,101660.35
2019-03-19T20:53:17.031Z,101674.92
2019-03-19T20:56:20.429Z,101670.05
2019-03-19T20:59:23.741Z,101672.19
2019-03-19T21:02:27.268Z,101674.38
2019-03-19T21:05:30.630Z,101683.14
2019-03-19T21:08:33.939Z,101681.82
2019-03-19T21:11:37.390Z,101689.16
2019-03-19T21:17:57.391Z,101689.73
2019-03-19T21:21:00.763Z,101698.70
2019-03-19T21:24:04.146Z,101702.11
2019-03-19T21:27:07.426Z,101699.28
2019-03-19T21:30:18.812Z,101706.55
2019-03-19T21:33:22.142Z,101694.73
2019-03-19T21:36:25.546Z,101710.20
2019-03-19T21:39:28.964Z,101698.40
2019-03-19T21:42:32.624Z,101702.48
2019-03-19T21:45:36.032Z,101704.16
2019-03-19T21:48:39.413Z,101715.75
2019-03-19T21:51:43.132Z,101721.75
2019-03-19T21:54:46.563Z,101719.99
2019-03-19T21:57:49.876Z,101726.22
2019-03-19T22:00:53.225Z,101715.43
2019-03-19T22:04:02.954Z,101718.04
2019-03-19T22:07:01.726Z,101729.66
2019-03-19T22:10:14.528Z,101727.23
2019-03-19T22:13:17.891Z,101728.20
2019-03-19T22:16:21.227Z,101727.02
2019-03-19T22:19:24.575Z,101724.38
2019-03-19T22:22:27.967Z,101725.14
2019-03-19T22:25:31.373Z,101729.48
2019-03-19T22:28:34.681Z,101733.02
2019-03-19T22:31:38.005Z,101728.98
2019-03-19T22:34:41.391Z,101739.19
2019-03-19T22:37:44.884Z,101744.78
2019-03-19T22:40:48.216Z,101740.29
2019-03-19T22:43:54.412Z,101746.83
2019-03-19T22:46:57.914Z,101743.02
2019-03-19T22:50:01.301Z,101745.75
2019-03-19T22:53:04.583Z,101741.48
2019-03-19T22:56:07.897Z,101750.07
2019-03-19T22:59:11.191Z,101749.11
2019-03-19T23:02:14.593Z,101754.76
2019-03-19T23:05:17.910Z,101760.17
2019-03-19T23:08:21.214Z,101762.75
2019-03-19T23:11:24.532Z,101765.92
2019-03-19T23:14:27.819Z,101767.52
2019-03-19T23:17:31.132Z,101774.27
2019-03-19T23:20:34.439Z,101775.24
2019-03-19T23:23:37.784Z,101771.68
2019-03-19T23:26:41.202Z,101782.13
2019-03-19T23:29:44.498Z,101785.67
2019-03-19T23:32:47.814Z,101781.38
2019-03-19T23:35:51.192Z,101780.76
2019-03-19T23:38:54.493Z,101783.95
2019-03-19T23:41:57.810Z,101780.52
2019-03-19T23:45:01.117Z,101784.34
2019-03-19T23:48:04.441Z,101792.03
2019-03-19T23:51:07.769Z,101786.40
2019-03-19T23:54:11.063Z,101795.12
2019-03-19T23:57:14.582Z,101795.46
